createdAt,value
2023-05-23T00:00:19.424Z,13.60
2023-05-23T00:03:07.442Z,13.50
2023-05-23T00:05:36.288Z,13.50
2023-05-23T00:08:04.346Z,13.50
2023-05-23T00:10:32.717Z,13.60
2023-05-23T00:13:00.881Z,13.60
2023-05-23T00:15:29.263Z,13.60
2023-05-23T00:17:58.377Z,13.70
2023-05-23T00:20:26.630Z,13.80
2023-05-23T00:22:54.912Z,13.90
2023-05-23T00:25:23.598Z,13.90
2023-05-23T00:27:52.080Z,13.90
2023-05-23T00:30:20.575Z,14.00
2023-05-23T00:32:48.750Z,14.00
2023-05-23T00:35:17.331Z,14.00
2023-05-23T00:37:45.897Z,14.00
2023-05-23T00:40:14.189Z,14.00
2023-05-23T00:42:42.298Z,14.00
2023-05-23T00:45:12.678Z,14.00
2023-05-23T00:47:43.044Z,13.90
2023-05-23T00:50:17.933Z,13.90
2023-05-23T00:52:49.926Z,13.90
2023-05-23T00:55:18.603Z,13.90
2023-05-23T00:57:46.664Z,13.80
2023-05-23T01:00:15.689Z,13.80
2023-05-23T01:02:48.367Z,13.70
2023-05-23T01:05:17.939Z,13.70
2023-05-23T01:07:50.117Z,13.70
2023-05-23T01:10:26.296Z,13.80
2023-05-23T01:13:23.757Z,13.90
2023-05-23T01:16:07.043Z,13.90
2023-05-23T01:18:48.603Z,14.00
2023-05-23T01:21:19.377Z,14.10
2023-05-23T01:24:14.897Z,14.10
2023-05-23T01:26:55.984Z,14.10
2023-05-23T01:29:29.166Z,14.10
2023-05-23T01:31:59.365Z,14.10
2023-05-23T01:34:27.558Z,14.00
2023-05-23T01:36:56.406Z,14.00
2023-05-23T01:39:24.937Z,14.00
2023-05-23T01:41:54.567Z,14.00
2023-05-23T01:44:23.047Z,14.00
2023-05-23T01:46:51.299Z,14.00
2023-05-23T01:49:20.721Z,13.90
2023-05-23T01:51:49.696Z,13.90
2023-05-23T01:54:20.153Z,13.90
2023-05-23T01:56:51.283Z,13.90
2023-05-23T01:59:19.228Z,13.80
2023-05-23T02:01:47.942Z,13.70
2023-05-23T02:04:16.516Z,13.70
2023-05-23T02:06:44.592Z,13.70
2023-05-23T02:09:15.038Z,13.70
2023-05-23T02:11:43.283Z,13.60
2023-05-23T02:14:11.974Z,13.60
2023-05-23T02:16:40.258Z,13.60
2023-05-23T02:19:08.802Z,13.50
2023-05-23T02:21:37.023Z,13.50
2023-05-23T02:24:05.083Z,13.30
2023-05-23T02:26:33.358Z,13.30
2023-05-23T02:29:02.668Z,13.30
2023-05-23T02:31:31.901Z,13.30
2023-05-23T02:34:02.003Z,13.30
2023-05-23T02:36:30.574Z,13.30
2023-05-23T02:38:58.842Z,13.40
2023-05-23T02:41:27.564Z,13.40
2023-05-23T02:43:56.213Z,13.30
2023-05-23T02:46:24.883Z,13.30
2023-05-23T02:48:52.880Z,13.30
2023-05-23T02:51:22.672Z,13.30
2023-05-23T02:53:50.860Z,13.10
2023-05-23T02:56:20.662Z,13.10
2023-05-23T02:58:48.653Z,13.10
2023-05-23T03:01:16.831Z,13.10
2023-05-23T03:03:44.790Z,13.10
2023-05-23T03:06:14.957Z,13.20
2023-05-23T03:08:43.637Z,13.30
2023-05-23T03:11:12.202Z,13.40
2023-05-23T03:13:40.049Z,13.50
2023-05-23T03:16:08.273Z,13.50
2023-05-23T03:18:36.546Z,13.50
2023-05-23T03:21:04.899Z,13.40
2023-05-23T03:23:32.739Z,13.30
2023-05-23T03:26:01.056Z,13.30
2023-05-23T03:28:29.142Z,13.30
2023-05-23T03:30:58.140Z,13.20
2023-05-23T03:33:26.179Z,13.30
2023-05-23T03:35:54.643Z,13.40
2023-05-23T03:38:22.531Z,13.50
2023-05-23T03:40:51.191Z,13.50
2023-05-23T03:43:20.426Z,13.50
2023-05-23T03:45:49.763Z,13.50
2023-05-23T03:48:19.036Z,13.60
2023-05-23T03:50:48.359Z,13.70
2023-05-23T03:53:16.365Z,13.80
2023-05-23T03:55:45.006Z,13.80
2023-05-23T03:58:13.381Z,13.80
2023-05-23T04:00:45.032Z,13.70
2023-05-23T04:03:18.126Z,13.80
2023-05-23T04:05:46.855Z,13.90
2023-05-23T04:08:14.968Z,13.90
2023-05-23T04:10:43.265Z,14.00
2023-05-23T04:13:11.482Z,14.20
2023-05-23T04:15:40.030Z,14.30
2023-05-23T04:18:14.637Z,14.40
2023-05-23T04:20:45.561Z,14.40
2023-05-23T04:23:14.748Z,14.40
2023-05-23T04:25:49.599Z,14.30
2023-05-23T04:28:28.600Z,14.20
2023-05-23T04:30:59.026Z,14.20
2023-05-23T04:33:30.900Z,14.20
2023-05-23T04:35:59.394Z,14.30
2023-05-23T04:38:28.277Z,14.50
2023-05-23T04:40:58.502Z,14.70
2023-05-23T04:43:29.653Z,15.00
2023-05-23T04:46:04.699Z,15.20
2023-05-23T04:48:43.097Z,15.40
2023-05-23T04:51:12.085Z,15.60
2023-05-23T04:53:50.892Z,15.80
2023-05-23T04:56:22.005Z,16.00
2023-05-23T04:58:50.330Z,16.10
2023-05-23T05:01:18.793Z,16.20
2023-05-23T05:03:47.719Z,16.30
2023-05-23T05:06:16.782Z,16.40
2023-05-23T05:08:44.742Z,16.50
2023-05-23T05:11:14.071Z,16.60
2023-05-23T05:13:42.780Z,16.70
2023-05-23T05:16:11.019Z,16.70
2023-05-23T05:18:39.916Z,16.80
2023-05-23T05:21:08.708Z,16.80
2023-05-23T05:23:38.449Z,16.70
2023-05-23T05:26:09.381Z,16.60
2023-05-23T05:28:37.123Z,16.50
2023-05-23T05:31:06.370Z,16.40
2023-05-23T05:33:37.946Z,16.40
2023-05-23T05:36:12.431Z,16.20
2023-05-23T05:39:07.203Z,16.10
2023-05-23T05:41:35.698Z,16.00
2023-05-23T05:44:05.633Z,15.90
2023-05-23T05:46:37.392Z,15.80
2023-05-23T05:49:06.384Z,15.60
2023-05-23T05:51:34.827Z,15.50
2023-05-23T05:54:04.940Z,15.20
2023-05-23T05:56:33.954Z,14.90
2023-05-23T05:59:03.658Z,14.70
2023-05-23T06:01:31.930Z,14.50
2023-05-23T06:04:00.250Z,14.20
2023-05-23T06:06:29.306Z,14.00
2023-05-23T06:08:57.285Z,14.00
2023-05-23T06:11:25.539Z,13.90
2023-05-23T06:13:53.544Z,13.90
2023-05-23T06:16:21.940Z,14.00
2023-05-23T06:18:50.870Z,14.10
2023-05-23T06:21:19.481Z,14.20
2023-05-23T06:23:51.261Z,14.40
2023-05-23T06:26:19.736Z,14.60
2023-05-23T06:28:47.496Z,15.00
2023-05-23T06:31:16.293Z,15.20
2023-05-23T06:33:45.399Z,15.50
2023-05-23T06:36:13.649Z,15.60
2023-05-23T06:38:42.849Z,15.80
2023-05-23T06:41:13.086Z,16.00
2023-05-23T06:43:41.073Z,16.00
2023-05-23T06:46:26.376Z,16.00
2023-05-23T06:49:06.600Z,16.00
2023-05-23T06:51:42.345Z,16.20
2023-05-23T06:54:13.822Z,16.60
2023-05-23T06:56:42.984Z,17.00
2023-05-23T06:59:13.712Z,17.50
2023-05-23T07:01:43.437Z,17.80
2023-05-23T07:04:13.970Z,18.10
2023-05-23T07:06:47.681Z,18.20
2023-05-23T07:09:16.351Z,18.20
2023-05-23T07:11:44.742Z,18.20
2023-05-23T07:14:15.443Z,18.20
2023-05-23T07:16:47.054Z,18.30
2023-05-23T07:19:38.176Z,18.60
2023-05-23T07:22:22.185Z,18.90
2023-05-23T07:24:54.631Z,19.30
2023-05-23T07:27:32.996Z,19.60
2023-05-23T07:30:02.374Z,19.90
2023-05-23T07:32:30.967Z,20.30
2023-05-23T07:34:59.420Z,20.20
2023-05-23T07:37:29.959Z,20.00
2023-05-23T07:39:58.365Z,19.70
2023-05-23T07:42:26.317Z,19.60
2023-05-23T07:44:54.490Z,19.40
2023-05-23T07:47:24.671Z,19.40
2023-05-23T07:49:54.325Z,19.50
2023-05-23T07:52:22.621Z,19.70
2023-05-23T07:54:51.308Z,20.00
2023-05-23T07:57:19.688Z,21.10
2023-05-23T07:59:48.139Z,22.00
2023-05-23T08:02:16.463Z,22.80
2023-05-23T08:04:46.272Z,22.80
2023-05-23T08:07:16.799Z,22.50
2023-05-23T08:09:52.129Z,22.40
2023-05-23T08:12:21.704Z,22.20
2023-05-23T08:14:56.868Z,22.00
2023-05-23T08:17:31.034Z,21.90
2023-05-23T08:20:01.619Z,21.90
2023-05-23T08:22:31.030Z,22.00
2023-05-23T08:24:59.582Z,22.30
2023-05-23T08:27:30.760Z,22.90
2023-05-23T08:30:05.355Z,23.30
2023-05-23T08:32:35.116Z,23.90
2023-05-23T08:35:04.991Z,24.50
2023-05-23T08:37:33.566Z,24.80
2023-05-23T08:40:02.257Z,25.00
2023-05-23T08:42:43.994Z,24.90
2023-05-23T08:45:15.109Z,25.00
2023-05-23T08:47:47.528Z,25.00
2023-05-23T08:50:21.888Z,25.30
2023-05-23T08:52:57.032Z,25.50
2023-05-23T08:55:28.067Z,25.40
2023-05-23T08:58:00.693Z,25.00
2023-05-23T09:00:47.759Z,24.70
2023-05-23T09:03:17.175Z,24.40
2023-05-23T09:06:08.387Z,24.20
2023-05-23T09:08:37.273Z,23.80
2023-05-23T09:11:07.192Z,23.40
2023-05-23T09:13:40.487Z,23.20
2023-05-23T09:16:11.934Z,23.20
2023-05-23T09:18:45.730Z,23.10
2023-05-23T09:21:16.992Z,23.00
2023-05-23T09:24:13.408Z,22.80
2023-05-23T09:26:41.600Z,23.00
2023-05-23T09:29:09.486Z,23.30
2023-05-23T09:31:38.069Z,23.50
2023-05-23T09:34:07.856Z,23.40
2023-05-23T09:36:36.769Z,23.30
2023-05-23T09:39:06.479Z,23.30
2023-05-23T09:41:35.727Z,23.40
2023-05-23T09:44:09.902Z,23.70
2023-05-23T09:46:39.870Z,24.30
2023-05-23T09:49:16.070Z,25.50
2023-05-23T09:51:44.427Z,26.50
2023-05-23T09:54:14.376Z,27.70
2023-05-23T09:56:43.944Z,28.90
2023-05-23T09:59:14.402Z,29.10
2023-05-23T10:01:47.317Z,29.40
2023-05-23T10:04:17.719Z,29.20
2023-05-23T10:06:54.269Z,28.70
2023-05-23T10:09:25.404Z,28.10
2023-05-23T10:12:11.693Z,27.50
2023-05-23T10:14:44.409Z,26.70
2023-05-23T10:17:20.215Z,27.10
2023-05-23T10:19:58.039Z,27.10
2023-05-23T10:22:28.055Z,26.50
2023-05-23T10:24:56.129Z,26.00
2023-05-23T10:27:24.512Z,25.50
2023-05-23T10:29:52.883Z,24.90
2023-05-23T10:32:30.308Z,24.70
2023-05-23T10:35:17.716Z,24.70
2023-05-23T10:38:14.258Z,25.00
2023-05-23T10:41:05.069Z,26.00
2023-05-23T10:43:54.422Z,26.90
2023-05-23T10:46:22.994Z,27.20
2023-05-23T10:48:57.588Z,27.00
2023-05-23T10:51:27.225Z,26.60
2023-05-23T10:53:55.824Z,26.80
2023-05-23T10:56:24.774Z,27.50
2023-05-23T10:58:57.778Z,28.90
2023-05-23T11:01:28.657Z,29.50
2023-05-23T11:03:56.867Z,29.00
2023-05-23T11:06:38.876Z,28.10
2023-05-23T11:09:22.234Z,27.00
2023-05-23T11:12:05.697Z,26.10
2023-05-23T11:14:33.892Z,25.60
2023-05-23T11:17:15.997Z,25.00
2023-05-23T11:20:07.001Z,24.70
2023-05-23T11:22:36.549Z,24.50
2023-05-23T11:25:13.313Z,24.60
2023-05-23T11:27:42.427Z,25.00
2023-05-23T11:30:14.418Z,25.80
2023-05-23T11:32:50.151Z,26.60
2023-05-23T11:35:18.622Z,27.10
2023-05-23T11:37:47.388Z,27.20
2023-05-23T11:40:41.066Z,26.90
2023-05-23T11:43:11.102Z,26.00
2023-05-23T11:45:40.354Z,25.00
2023-05-23T11:48:13.132Z,24.20
2023-05-23T11:50:59.748Z,23.70
2023-05-23T11:53:29.041Z,23.50
2023-05-23T11:56:00.629Z,24.00
2023-05-23T11:58:37.057Z,24.40
2023-05-23T12:01:09.422Z,24.60
2023-05-23T12:03:51.439Z,25.00
2023-05-23T12:06:20.318Z,26.60
2023-05-23T12:08:48.823Z,28.30
2023-05-23T12:11:18.260Z,29.20
2023-05-23T12:13:46.905Z,29.70
2023-05-23T12:16:16.459Z,30.10
2023-05-23T12:18:44.571Z,30.50
2023-05-23T12:21:13.468Z,31.10
2023-05-23T12:23:42.830Z,31.60
2023-05-23T12:26:11.178Z,31.40
2023-05-23T12:28:45.529Z,30.80
2023-05-23T12:31:22.401Z,30.30
2023-05-23T12:33:53.640Z,30.00
2023-05-23T12:36:24.577Z,30.10
2023-05-23T12:38:52.726Z,30.00
2023-05-23T12:41:22.565Z,29.50
2023-05-23T12:43:55.621Z,29.10
2023-05-23T12:46:27.845Z,29.00
2023-05-23T12:48:56.428Z,28.70
2023-05-23T12:51:26.368Z,28.30
2023-05-23T12:53:55.893Z,28.10
2023-05-23T12:56:24.196Z,28.50
2023-05-23T12:58:53.993Z,28.50
2023-05-23T13:01:22.320Z,28.50
2023-05-23T13:03:50.487Z,28.30
2023-05-23T13:06:18.833Z,28.10
2023-05-23T13:08:47.201Z,28.00
2023-05-23T13:11:15.874Z,27.90
2023-05-23T13:13:44.154Z,27.90
2023-05-23T13:16:12.980Z,27.90
2023-05-23T13:18:41.029Z,27.90
2023-05-23T13:21:09.897Z,27.90
2023-05-23T13:23:39.509Z,27.50
2023-05-23T13:26:08.602Z,26.90
2023-05-23T13:28:36.774Z,26.20
2023-05-23T13:31:06.421Z,25.90
2023-05-23T13:33:34.473Z,25.80
2023-05-23T13:36:02.863Z,25.80
2023-05-23T13:38:32.372Z,25.60
2023-05-23T13:41:00.850Z,25.40
2023-05-23T13:43:28.998Z,25.20
2023-05-23T13:45:57.513Z,25.00
2023-05-23T13:48:25.471Z,25.00
2023-05-23T13:50:54.062Z,24.90
2023-05-23T13:53:22.527Z,25.00
2023-05-23T13:55:51.421Z,25.00
2023-05-23T13:58:19.613Z,25.10
2023-05-23T14:00:48.179Z,25.00
2023-05-23T14:03:16.570Z,25.00
2023-05-23T14:05:45.127Z,25.00
2023-05-23T14:08:14.341Z,24.60
2023-05-23T14:10:43.136Z,24.20
2023-05-23T14:13:12.344Z,23.80
2023-05-23T14:15:42.888Z,23.50
2023-05-23T14:18:11.092Z,23.20
2023-05-23T14:20:39.914Z,22.80
2023-05-23T14:23:08.186Z,22.60
2023-05-23T14:25:37.198Z,22.50
2023-05-23T14:28:05.460Z,22.40
2023-05-23T14:30:33.732Z,22.30
2023-05-23T14:33:01.654Z,22.20
2023-05-23T14:35:30.000Z,21.90
2023-05-23T14:37:58.696Z,21.70
2023-05-23T14:40:27.658Z,21.40
2023-05-23T14:42:55.841Z,21.10
2023-05-23T14:45:24.253Z,20.80
2023-05-23T14:47:53.673Z,20.60
2023-05-23T14:50:22.109Z,20.60
2023-05-23T14:52:50.197Z,20.70
2023-05-23T14:55:18.883Z,20.80
2023-05-23T14:57:47.038Z,20.80
2023-05-23T15:00:15.743Z,20.70
2023-05-23T15:02:43.920Z,20.70
2023-05-23T15:05:12.898Z,20.70
2023-05-23T15:07:40.973Z,20.80
2023-05-23T15:10:09.665Z,20.90
2023-05-23T15:12:40.916Z,21.00
2023-05-23T15:15:11.025Z,21.00
2023-05-23T15:17:40.341Z,21.00
2023-05-23T15:20:10.355Z,20.90
2023-05-23T15:22:39.797Z,20.80
2023-05-23T15:25:10.614Z,20.70
2023-05-23T15:27:45.431Z,20.50
2023-05-23T15:30:14.198Z,20.30
2023-05-23T15:32:42.337Z,20.10
2023-05-23T15:35:10.952Z,19.90
2023-05-23T15:37:41.897Z,19.70
2023-05-23T15:40:11.201Z,19.50
2023-05-23T15:42:39.674Z,19.50
2023-05-23T15:45:08.485Z,19.50
2023-05-23T15:47:36.717Z,19.50
2023-05-23T15:50:06.161Z,19.70
2023-05-23T15:52:34.106Z,19.70
2023-05-23T15:55:06.099Z,19.70
2023-05-23T15:57:35.075Z,19.70
2023-05-23T16:00:03.455Z,19.70
2023-05-23T16:02:39.785Z,19.60
2023-05-23T16:05:08.639Z,19.50
2023-05-23T16:07:36.566Z,19.50
2023-05-23T16:10:05.496Z,19.50
2023-05-23T16:12:33.465Z,19.40
2023-05-23T16:15:01.857Z,19.40
2023-05-23T16:17:30.335Z,19.40
2023-05-23T16:19:58.612Z,19.40
2023-05-23T16:22:26.663Z,19.30
2023-05-23T16:24:55.714Z,19.20
2023-05-23T16:27:24.637Z,19.10
2023-05-23T16:29:56.188Z,19.10
2023-05-23T16:32:24.309Z,19.00
2023-05-23T16:34:54.577Z,19.10
2023-05-23T16:37:23.191Z,19.10
2023-05-23T16:39:54.446Z,19.20
2023-05-23T16:42:22.807Z,19.20
2023-05-23T16:44:52.089Z,19.30
2023-05-23T16:47:22.038Z,19.30
2023-05-23T16:49:50.733Z,19.30
2023-05-23T16:52:18.872Z,19.30
2023-05-23T16:54:47.281Z,19.30
2023-05-23T16:57:15.435Z,19.30
2023-05-23T16:59:43.541Z,19.30
2023-05-23T17:02:16.215Z,19.20
2023-05-23T17:04:46.130Z,19.10
2023-05-23T17:07:18.997Z,19.10
2023-05-23T17:09:48.073Z,19.10
2023-05-23T17:12:16.065Z,19.10
2023-05-23T17:14:44.328Z,19.10
2023-05-23T17:17:12.408Z,19.10
2023-05-23T17:19:42.762Z,19.10
2023-05-23T17:22:12.184Z,19.00
2023-05-23T17:24:41.120Z,18.90
2023-05-23T17:27:10.600Z,18.90
2023-05-23T17:29:39.933Z,18.90
2023-05-23T17:32:10.283Z,18.80
2023-05-23T17:34:39.041Z,18.70
2023-05-23T17:37:07.322Z,18.60
2023-05-23T17:39:36.995Z,18.50
2023-05-23T17:42:08.282Z,18.40
2023-05-23T17:44:36.544Z,18.40
2023-05-23T17:47:06.221Z,18.30
2023-05-23T17:49:39.050Z,18.30
2023-05-23T17:52:11.407Z,18.30
2023-05-23T17:54:43.077Z,18.20
2023-05-23T17:57:11.529Z,18.20
2023-05-23T17:59:42.116Z,18.10
2023-05-23T18:02:15.667Z,18.10
2023-05-23T18:04:48.473Z,18.10
2023-05-23T18:07:21.478Z,18.10
2023-05-23T18:09:51.887Z,18.10
2023-05-23T18:12:27.156Z,18.00
2023-05-23T18:14:58.705Z,18.00
2023-05-23T18:17:28.256Z,18.00
2023-05-23T18:19:57.100Z,17.80
2023-05-23T18:22:25.859Z,17.80
2023-05-23T18:24:54.365Z,17.60
2023-05-23T18:27:22.723Z,17.50
2023-05-23T18:29:51.823Z,17.40
2023-05-23T18:32:21.481Z,17.30
2023-05-23T18:34:49.919Z,17.20
2023-05-23T18:37:18.167Z,17.10
2023-05-23T18:39:46.474Z,17.00
2023-05-23T18:42:14.653Z,16.90
2023-05-23T18:44:43.040Z,16.80
2023-05-23T18:47:13.066Z,16.80
2023-05-23T18:49:41.973Z,16.70
2023-05-23T18:52:10.843Z,16.60
2023-05-23T18:54:39.467Z,16.60
2023-05-23T18:57:07.707Z,16.50
2023-05-23T18:59:36.174Z,16.50
2023-05-23T19:02:04.365Z,16.40
2023-05-23T19:04:33.223Z,16.40
2023-05-23T19:07:01.957Z,16.30
2023-05-23T19:09:30.693Z,16.30
2023-05-23T19:11:59.478Z,16.20
2023-05-23T19:14:27.800Z,16.20
2023-05-23T19:16:56.180Z,16.10
2023-05-23T19:19:24.550Z,16.10
2023-05-23T19:21:52.832Z,16.10
2023-05-23T19:24:23.461Z,16.10
2023-05-23T19:26:51.423Z,16.00
2023-05-23T19:29:20.698Z,16.00
2023-05-23T19:31:48.948Z,16.00
2023-05-23T19:37:01.537Z,16.00
2023-05-23T19:39:29.905Z,15.80
2023-05-23T19:41:58.098Z,15.80
2023-05-23T19:44:28.305Z,15.80
2023-05-23T19:46:56.595Z,15.70
2023-05-23T19:49:25.365Z,15.60
2023-05-23T19:51:54.770Z,15.60
2023-05-23T19:54:25.371Z,15.60
2023-05-23T19:56:53.687Z,15.60
2023-05-23T19:59:27.858Z,15.60
2023-05-23T20:01:56.056Z,15.50
2023-05-23T20:04:28.036Z,15.50
2023-05-23T20:06:57.240Z,15.50
2023-05-23T20:09:26.937Z,15.50
2023-05-23T20:11:55.124Z,15.50
2023-05-23T20:14:23.595Z,15.50
2023-05-23T20:16:54.122Z,15.50
2023-05-23T20:19:24.808Z,15.50
2023-05-23T20:21:53.149Z,15.40
2023-05-23T20:24:21.948Z,15.40
2023-05-23T20:26:51.033Z,15.30
2023-05-23T20:29:22.269Z,15.20
2023-05-23T20:31:50.445Z,15.20
2023-05-23T20:34:21.010Z,15.10
2023-05-23T20:36:49.152Z,15.00
2023-05-23T20:39:18.121Z,15.00
2023-05-23T20:41:47.442Z,14.90
2023-05-23T20:44:19.430Z,14.70
2023-05-23T20:46:48.856Z,14.60
2023-05-23T20:49:18.087Z,14.40
2023-05-23T20:51:47.409Z,14.30
2023-05-23T20:54:16.317Z,14.20
2023-05-23T20:56:47.118Z,14.10
2023-05-23T20:59:16.671Z,14.00
2023-05-23T21:01:45.203Z,13.90
2023-05-23T21:04:18.108Z,13.90
2023-05-23T21:06:48.563Z,13.80
2023-05-23T21:09:17.434Z,13.70
2023-05-23T21:11:46.343Z,13.60
2023-05-23T21:14:15.295Z,13.50
2023-05-23T21:16:43.093Z,13.50
2023-05-23T21:19:13.468Z,13.50
2023-05-23T21:21:42.099Z,13.50
2023-05-23T21:24:10.477Z,13.40
2023-05-23T21:26:38.623Z,13.30
2023-05-23T21:29:07.313Z,13.30
2023-05-23T21:31:41.326Z,13.30
2023-05-23T21:34:22.439Z,13.20
2023-05-23T21:36:52.453Z,13.10
2023-05-23T21:39:21.428Z,13.10
2023-05-23T21:41:49.393Z,13.10
2023-05-23T21:44:19.113Z,13.00
2023-05-23T21:46:47.434Z,13.00
2023-05-23T21:49:16.284Z,12.90
2023-05-23T21:51:44.665Z,12.90
2023-05-23T21:54:13.037Z,12.90
2023-05-23T21:56:41.417Z,12.90
2023-05-23T21:59:10.026Z,12.80
2023-05-23T22:01:38.207Z,12.80
2023-05-23T22:04:07.220Z,12.80
2023-05-23T22:06:35.246Z,12.70
2023-05-23T22:09:03.740Z,12.70
2023-05-23T22:11:34.401Z,12.60
2023-05-23T22:14:03.460Z,12.60
2023-05-23T22:16:33.168Z,12.60
2023-05-23T22:19:02.545Z,12.50
2023-05-23T22:21:30.648Z,12.50
2023-05-23T22:23:59.250Z,12.50
2023-05-23T22:26:27.604Z,12.50
2023-05-23T22:28:56.744Z,12.40
2023-05-23T22:31:25.098Z,12.30
2023-05-23T22:33:53.517Z,12.30
2023-05-23T22:36:24.194Z,12.20
2023-05-23T22:38:52.404Z,12.10
2023-05-23T22:41:20.259Z,12.00
2023-05-23T22:43:48.529Z,12.00
2023-05-23T22:46:17.431Z,11.90
2023-05-23T22:48:45.802Z,11.70
2023-05-23T22:51:14.849Z,11.70
2023-05-23T22:53:43.676Z,11.60
2023-05-23T22:56:11.847Z,11.50
2023-05-23T22:58:40.037Z,11.40
2023-05-23T23:01:08.090Z,11.40
2023-05-23T23:03:36.286Z,11.30
2023-05-23T23:06:06.584Z,11.20
2023-05-23T23:08:35.096Z,11.10
2023-05-23T23:11:03.157Z,11.10
2023-05-23T23:13:33.882Z,11.10
2023-05-23T23:16:01.853Z,11.00
2023-05-23T23:18:30.348Z,11.00
2023-05-23T23:20:58.298Z,10.90
2023-05-23T23:23:26.423Z,10.90
2023-05-23T23:25:54.662Z,10.80
2023-05-23T23:28:23.141Z,10.90
2023-05-23T23:30:51.009Z,10.90
2023-05-23T23:33:19.360Z,10.80
2023-05-23T23:35:48.936Z,10.80
2023-05-23T23:38:17.783Z,10.80
2023-05-23T23:40:45.879Z,10.70
2023-05-23T23:43:14.441Z,10.70
2023-05-23T23:45:42.348Z,10.70
2023-05-23T23:48:11.037Z,10.70
2023-05-23T23:50:39.078Z,10.60
2023-05-23T23:53:08.266Z,10.60
2023-05-23T23:55:36.047Z,10.60
2023-05-23T23:58:05.152Z,10.60
